sensor_id;sensor_type;location;lat;lon;timestamp;P1;durP1;ratioP1;P2;durP2;ratioP2
2021;SDS011;1015;49.756;6.994;2023-10-19T00:01:54;39.47;;;20.03;;
2021;SDS011;1015;49.756;6.994;2023-10-19T00:04:23;40.50;;;20.57;;
2021;SDS011;1015;49.756;6.994;2023-10-19T00:06:49;31.00;;;20.80;;
2021;SDS011;1015;49.756;6.994;2023-10-19T00:09:16;31.83;;;19.07;;
2021;SDS011;1015;49.756;6.994;2023-10-19T00:11:44;33.47;;;21.17;;
2021;SDS011;1015;49.756;6.994;2023-10-19T00:14:16;38.03;;;22.30;;
2021;SDS011;1015;49.756;6.994;2023-10-19T00:16:44;36.70;;;22.73;;
2021;SDS011;1015;49.756;6.994;2023-10-19T00:19:18;39.20;;;23.47;;
2021;SDS011;1015;49.756;6.994;2023-10-19T00:21:45;40.53;;;23.30;;
2021;SDS011;1015;49.756;6.994;2023-10-19T00:24:20;39.20;;;22.50;;
2021;SDS011;1015;49.756;6.994;2023-10-19T00:26:48;40.33;;;23.87;;
2021;SDS011;1015;49.756;6.994;2023-10-19T00:29:18;35.70;;;21.63;;
2021;SDS011;1015;49.756;6.994;2023-10-19T00:31:58;40.73;;;22.23;;
2021;SDS011;1015;49.756;6.994;2023-10-19T00:34:26;36.33;;;21.70;;
2021;SDS011;1015;49.756;6.994;2023-10-19T00:36:54;36.73;;;22.07;;
2021;SDS011;1015;49.756;6.994;2023-10-19T00:39:22;43.67;;;22.47;;
2021;SDS011;1015;49.756;6.994;2023-10-19T00:41:49;37.07;;;22.10;;
2021;SDS011;1015;49.756;6.994;2023-10-19T00:44:22;32.50;;;22.07;;
2021;SDS011;1015;49.756;6.994;2023-10-19T00:47:02;33.10;;;20.97;;
2021;SDS011;1015;49.756;6.994;2023-10-19T00:49:32;30.77;;;20.10;;
2021;SDS011;1015;49.756;6.994;2023-10-19T00:52:00;30.93;;;20.90;;
2021;SDS011;1015;49.756;6.994;2023-10-19T00:54:37;30.27;;;19.00;;
2021;SDS011;1015;49.756;6.994;2023-10-19T00:57:07;32.10;;;20.37;;
2021;SDS011;1015;49.756;6.994;2023-10-19T00:59:36;31.17;;;19.73;;
2021;SDS011;1015;49.756;6.994;2023-10-19T01:02:09;32.37;;;20.20;;
2021;SDS011;1015;49.756;6.994;2023-10-19T01:04:43;30.50;;;20.07;;
2021;SDS011;1015;49.756;6.994;2023-10-19T01:07:11;30.90;;;20.00;;
2021;SDS011;1015;49.756;6.994;2023-10-19T01:09:41;37.07;;;21.10;;
2021;SDS011;1015;49.756;6.994;2023-10-19T01:12:09;29.70;;;20.03;;
2021;SDS011;1015;49.756;6.994;2023-10-19T01:15:06;30.00;;;19.50;;
2021;SDS011;1015;49.756;6.994;2023-10-19T01:17:36;34.23;;;19.73;;
2021;SDS011;1015;49.756;6.994;2023-10-19T01:20:09;25.17;;;17.63;;
2021;SDS011;1015;49.756;6.994;2023-10-19T01:22:56;21.93;;;16.20;;
2021;SDS011;1015;49.756;6.994;2023-10-19T01:25:42;22.23;;;15.90;;
2021;SDS011;1015;49.756;6.994;2023-10-19T01:28:15;22.70;;;17.13;;
2021;SDS011;1015;49.756;6.994;2023-10-19T01:30:42;23.47;;;15.87;;
2021;SDS011;1015;49.756;6.994;2023-10-19T01:33:10;20.90;;;15.30;;
2021;SDS011;1015;49.756;6.994;2023-10-19T01:35:40;21.30;;;15.53;;
2021;SDS011;1015;49.756;6.994;2023-10-19T01:38:27;22.33;;;15.37;;
2021;SDS011;1015;49.756;6.994;2023-10-19T01:40:56;17.60;;;13.00;;
2021;SDS011;1015;49.756;6.994;2023-10-19T01:43:24;14.57;;;12.10;;
2021;SDS011;1015;49.756;6.994;2023-10-19T01:45:55;16.80;;;11.90;;
2021;SDS011;1015;49.756;6.994;2023-10-19T01:48:22;10.40;;;9.30;;
2021;SDS011;1015;49.756;6.994;2023-10-19T01:50:58;13.53;;;8.93;;
2021;SDS011;1015;49.756;6.994;2023-10-19T01:53:27;8.80;;;6.97;;
2021;SDS011;1015;49.756;6.994;2023-10-19T01:55:54;10.43;;;6.30;;
2021;SDS011;1015;49.756;6.994;2023-10-19T01:58:24;10.00;;;6.33;;
2021;SDS011;1015;49.756;6.994;2023-10-19T02:00:53;7.13;;;5.70;;
2021;SDS011;1015;49.756;6.994;2023-10-19T02:03:25;7.93;;;5.50;;
2021;SDS011;1015;49.756;6.994;2023-10-19T02:05:57;8.67;;;5.53;;
2021;SDS011;1015;49.756;6.994;2023-10-19T02:08:26;9.07;;;5.50;;
2021;SDS011;1015;49.756;6.994;2023-10-19T02:10:52;9.30;;;5.40;;
2021;SDS011;1015;49.756;6.994;2023-10-19T02:13:20;8.40;;;5.10;;
2021;SDS011;1015;49.756;6.994;2023-10-19T02:15:46;10.37;;;4.60;;
2021;SDS011;1015;49.756;6.994;2023-10-19T02:18:14;6.70;;;3.87;;
2021;SDS011;1015;49.756;6.994;2023-10-19T02:20:42;6.33;;;3.73;;
2021;SDS011;1015;49.756;6.994;2023-10-19T02:23:13;6.03;;;3.73;;
2021;SDS011;1015;49.756;6.994;2023-10-19T02:25:41;7.50;;;3.90;;
2021;SDS011;1015;49.756;6.994;2023-10-19T02:28:08;5.50;;;3.20;;
2021;SDS011;1015;49.756;6.994;2023-10-19T02:30:34;3.97;;;2.77;;
2021;SDS011;1015;49.756;6.994;2023-10-19T02:33:03;7.00;;;2.80;;
2021;SDS011;1015;49.756;6.994;2023-10-19T02:35:31;4.03;;;3.00;;
2021;SDS011;1015;49.756;6.994;2023-10-19T02:38:00;3.77;;;3.00;;
2021;SDS011;1015;49.756;6.994;2023-10-19T02:40:29;7.10;;;3.10;;
2021;SDS011;1015;49.756;6.994;2023-10-19T02:43:00;5.43;;;3.13;;
2021;SDS011;1015;49.756;6.994;2023-10-19T02:45:28;4.50;;;2.90;;
2021;SDS011;1015;49.756;6.994;2023-10-19T02:47:56;4.10;;;3.07;;
2021;SDS011;1015;49.756;6.994;2023-10-19T02:50:23;5.27;;;2.90;;
2021;SDS011;1015;49.756;6.994;2023-10-19T02:52:51;4.40;;;3.20;;
2021;SDS011;1015;49.756;6.994;2023-10-19T02:55:18;4.93;;;2.77;;
2021;SDS011;1015;49.756;6.994;2023-10-19T02:57:48;4.80;;;3.00;;
2021;SDS011;1015;49.756;6.994;2023-10-19T03:00:16;5.00;;;2.90;;
2021;SDS011;1015;49.756;6.994;2023-10-19T03:02:45;4.60;;;2.53;;
2021;SDS011;1015;49.756;6.994;2023-10-19T03:05:11;4.47;;;3.07;;
2021;SDS011;1015;49.756;6.994;2023-10-19T03:07:39;3.77;;;2.20;;
2021;SDS011;1015;49.756;6.994;2023-10-19T03:10:08;3.80;;;2.37;;
2021;SDS011;1015;49.756;6.994;2023-10-19T03:12:48;4.27;;;2.63;;
2021;SDS011;1015;49.756;6.994;2023-10-19T03:15:14;4.60;;;2.63;;
2021;SDS011;1015;49.756;6.994;2023-10-19T03:17:44;6.20;;;2.97;;
2021;SDS011;1015;49.756;6.994;2023-10-19T03:20:10;4.00;;;2.90;;
2021;SDS011;1015;49.756;6.994;2023-10-19T03:22:39;4.73;;;2.97;;
2021;SDS011;1015;49.756;6.994;2023-10-19T03:25:06;4.67;;;3.03;;
2021;SDS011;1015;49.756;6.994;2023-10-19T03:28:00;5.43;;;3.10;;
2021;SDS011;1015;49.756;6.994;2023-10-19T03:30:33;4.60;;;3.40;;
2021;SDS011;1015;49.756;6.994;2023-10-19T03:33:05;5.90;;;3.50;;
2021;SDS011;1015;49.756;6.994;2023-10-19T03:35:34;4.77;;;3.20;;
2021;SDS011;1015;49.756;6.994;2023-10-19T03:38:02;6.93;;;3.57;;
2021;SDS011;1015;49.756;6.994;2023-10-19T03:40:40;4.43;;;3.63;;
2021;SDS011;1015;49.756;6.994;2023-10-19T03:43:11;6.67;;;3.00;;
2021;SDS011;1015;49.756;6.994;2023-10-19T03:45:43;5.63;;;3.70;;
2021;SDS011;1015;49.756;6.994;2023-10-19T03:48:17;7.77;;;3.60;;
2021;SDS011;1015;49.756;6.994;2023-10-19T03:50:49;5.23;;;3.30;;
2021;SDS011;1015;49.756;6.994;2023-10-19T03:53:18;6.67;;;2.80;;
2021;SDS011;1015;49.756;6.994;2023-10-19T03:55:46;9.60;;;3.53;;
2021;SDS011;1015;49.756;6.994;2023-10-19T03:58:15;8.20;;;3.20;;
2021;SDS011;1015;49.756;6.994;2023-10-19T04:00:42;6.47;;;2.63;;
2021;SDS011;1015;49.756;6.994;2023-10-19T04:03:10;5.30;;;2.97;;
2021;SDS011;1015;49.756;6.994;2023-10-19T04:05:39;4.57;;;2.57;;
2021;SDS011;1015;49.756;6.994;2023-10-19T04:08:06;5.53;;;2.67;;
2021;SDS011;1015;49.756;6.994;2023-10-19T04:10:40;5.13;;;2.50;;
2021;SDS011;1015;49.756;6.994;2023-10-19T04:13:12;5.23;;;2.93;;
2021;SDS011;1015;49.756;6.994;2023-10-19T04:15:39;5.93;;;2.60;;
2021;SDS011;1015;49.756;6.994;2023-10-19T04:18:07;9.60;;;2.83;;
2021;SDS011;1015;49.756;6.994;2023-10-19T04:20:35;5.00;;;2.73;;
2021;SDS011;1015;49.756;6.994;2023-10-19T04:23:09;6.77;;;3.00;;
2021;SDS011;1015;49.756;6.994;2023-10-19T04:25:39;3.90;;;2.53;;
2021;SDS011;1015;49.756;6.994;2023-10-19T04:28:06;4.90;;;2.37;;
2021;SDS011;1015;49.756;6.994;2023-10-19T04:30:34;6.50;;;2.60;;
2021;SDS011;1015;49.756;6.994;2023-10-19T04:33:02;7.60;;;2.60;;
2021;SDS011;1015;49.756;6.994;2023-10-19T04:35:34;8.63;;;2.57;;
2021;SDS011;1015;49.756;6.994;2023-10-19T04:38:03;4.73;;;2.40;;
2021;SDS011;1015;49.756;6.994;2023-10-19T04:40:33;4.57;;;2.30;;
2021;SDS011;1015;49.756;6.994;2023-10-19T04:43:02;4.67;;;2.40;;
2021;SDS011;1015;49.756;6.994;2023-10-19T04:45:30;6.10;;;2.50;;
2021;SDS011;1015;49.756;6.994;2023-10-19T04:47:57;5.40;;;2.20;;
2021;SDS011;1015;49.756;6.994;2023-10-19T04:50:24;6.33;;;2.57;;
2021;SDS011;1015;49.756;6.994;2023-10-19T04:52:51;6.53;;;2.40;;
2021;SDS011;1015;49.756;6.994;2023-10-19T04:55:18;4.70;;;1.93;;
2021;SDS011;1015;49.756;6.994;2023-10-19T04:57:47;5.03;;;2.10;;
2021;SDS011;1015;49.756;6.994;2023-10-19T05:00:14;5.83;;;2.27;;
2021;SDS011;1015;49.756;6.994;2023-10-19T05:02:41;5.30;;;2.63;;
2021;SDS011;1015;49.756;6.994;2023-10-19T05:05:09;4.03;;;2.33;;
2021;SDS011;1015;49.756;6.994;2023-10-19T05:07:36;3.70;;;2.20;;
2021;SDS011;1015;49.756;6.994;2023-10-19T05:10:03;4.83;;;2.23;;
2021;SDS011;1015;49.756;6.994;2023-10-19T05:12:31;6.13;;;2.93;;
2021;SDS011;1015;49.756;6.994;2023-10-19T05:15:00;2.93;;;2.47;;
2021;SDS011;1015;49.756;6.994;2023-10-19T05:17:27;3.03;;;2.50;;
2021;SDS011;1015;49.756;6.994;2023-10-19T05:19:54;4.17;;;2.60;;
2021;SDS011;1015;49.756;6.994;2023-10-19T05:22:21;6.93;;;2.70;;
2021;SDS011;1015;49.756;6.994;2023-10-19T05:24:49;5.77;;;2.17;;
2021;SDS011;1015;49.756;6.994;2023-10-19T05:27:17;5.87;;;2.57;;
2021;SDS011;1015;49.756;6.994;2023-10-19T05:29:44;6.40;;;3.00;;
2021;SDS011;1015;49.756;6.994;2023-10-19T05:32:13;6.23;;;2.63;;
2021;SDS011;1015;49.756;6.994;2023-10-19T05:34:40;4.13;;;2.40;;
2021;SDS011;1015;49.756;6.994;2023-10-19T05:37:07;7.93;;;3.10;;
2021;SDS011;1015;49.756;6.994;2023-10-19T05:39:35;6.63;;;2.50;;
2021;SDS011;1015;49.756;6.994;2023-10-19T05:42:02;4.17;;;2.87;;
2021;SDS011;1015;49.756;6.994;2023-10-19T05:44:31;4.27;;;2.60;;
2021;SDS011;1015;49.756;6.994;2023-10-19T05:46:58;5.07;;;2.57;;
2021;SDS011;1015;49.756;6.994;2023-10-19T05:49:26;5.47;;;3.23;;
2021;SDS011;1015;49.756;6.994;2023-10-19T05:51:53;3.53;;;2.37;;
2021;SDS011;1015;49.756;6.994;2023-10-19T05:54:20;6.83;;;2.83;;
2021;SDS011;1015;49.756;6.994;2023-10-19T05:56:48;4.40;;;2.50;;
2021;SDS011;1015;49.756;6.994;2023-10-19T05:59:16;8.20;;;3.20;;
2021;SDS011;1015;49.756;6.994;2023-10-19T06:01:43;6.77;;;3.10;;
2021;SDS011;1015;49.756;6.994;2023-10-19T06:04:12;4.63;;;2.70;;
2021;SDS011;1015;49.756;6.994;2023-10-19T06:06:40;3.90;;;2.60;;
2021;SDS011;1015;49.756;6.994;2023-10-19T06:09:07;7.50;;;2.50;;
2021;SDS011;1015;49.756;6.994;2023-10-19T06:11:35;7.97;;;2.73;;
2021;SDS011;1015;49.756;6.994;2023-10-19T06:14:07;2.93;;;2.50;;
2021;SDS011;1015;49.756;6.994;2023-10-19T06:16:34;6.20;;;2.93;;
2021;SDS011;1015;49.756;6.994;2023-10-19T06:19:02;3.83;;;3.00;;
2021;SDS011;1015;49.756;6.994;2023-10-19T06:21:30;7.80;;;2.97;;
2021;SDS011;1015;49.756;6.994;2023-10-19T06:23:59;4.77;;;2.87;;
2021;SDS011;1015;49.756;6.994;2023-10-19T06:26:27;5.80;;;3.53;;
2021;SDS011;1015;49.756;6.994;2023-10-19T06:28:54;7.07;;;3.47;;
2021;SDS011;1015;49.756;6.994;2023-10-19T06:31:23;5.63;;;3.37;;
2021;SDS011;1015;49.756;6.994;2023-10-19T06:33:51;7.50;;;4.23;;
2021;SDS011;1015;49.756;6.994;2023-10-19T06:36:18;4.97;;;3.77;;
2021;SDS011;1015;49.756;6.994;2023-10-19T06:38:45;6.47;;;4.30;;
2021;SDS011;1015;49.756;6.994;2023-10-19T06:41:15;6.80;;;3.87;;
2021;SDS011;1015;49.756;6.994;2023-10-19T06:43:43;7.87;;;4.80;;
2021;SDS011;1015;49.756;6.994;2023-10-19T06:46:10;9.80;;;5.10;;
2021;SDS011;1015;49.756;6.994;2023-10-19T06:48:37;10.30;;;4.50;;
2021;SDS011;1015;49.756;6.994;2023-10-19T06:51:04;11.53;;;5.77;;
2021;SDS011;1015;49.756;6.994;2023-10-19T06:53:32;8.17;;;5.47;;
2021;SDS011;1015;49.756;6.994;2023-10-19T06:55:59;6.73;;;5.60;;
2021;SDS011;1015;49.756;6.994;2023-10-19T06:58:27;10.50;;;5.27;;
2021;SDS011;1015;49.756;6.994;2023-10-19T07:00:54;12.63;;;6.97;;
2021;SDS011;1015;49.756;6.994;2023-10-19T07:03:30;10.97;;;7.10;;
2021;SDS011;1015;49.756;6.994;2023-10-19T07:05:57;12.00;;;8.30;;
2021;SDS011;1015;49.756;6.994;2023-10-19T07:08:24;12.97;;;8.53;;
2021;SDS011;1015;49.756;6.994;2023-10-19T07:10:52;11.17;;;9.03;;
2021;SDS011;1015;49.756;6.994;2023-10-19T07:13:19;12.60;;;9.20;;
2021;SDS011;1015;49.756;6.994;2023-10-19T07:15:48;15.93;;;9.33;;
2021;SDS011;1015;49.756;6.994;2023-10-19T07:18:16;12.57;;;8.50;;
2021;SDS011;1015;49.756;6.994;2023-10-19T07:20:44;15.13;;;10.30;;
2021;SDS011;1015;49.756;6.994;2023-10-19T07:23:13;13.93;;;9.27;;
2021;SDS011;1015;49.756;6.994;2023-10-19T07:25:45;13.33;;;9.30;;
2021;SDS011;1015;49.756;6.994;2023-10-19T07:28:13;13.33;;;9.07;;
2021;SDS011;1015;49.756;6.994;2023-10-19T07:30:40;14.87;;;9.50;;
2021;SDS011;1015;49.756;6.994;2023-10-19T07:33:08;11.93;;;8.77;;
2021;SDS011;1015;49.756;6.994;2023-10-19T07:35:36;13.33;;;7.57;;
2021;SDS011;1015;49.756;6.994;2023-10-19T07:38:04;11.03;;;7.70;;
2021;SDS011;1015;49.756;6.994;2023-10-19T07:40:32;10.67;;;7.83;;
2021;SDS011;1015;49.756;6.994;2023-10-19T07:43:00;8.60;;;7.70;;
2021;SDS011;1015;49.756;6.994;2023-10-19T07:45:28;10.80;;;7.70;;
2021;SDS011;1015;49.756;6.994;2023-10-19T07:47:56;13.43;;;8.20;;
2021;SDS011;1015;49.756;6.994;2023-10-19T07:50:32;10.03;;;7.03;;
2021;SDS011;1015;49.756;6.994;2023-10-19T07:52:59;12.43;;;7.90;;
2021;SDS011;1015;49.756;6.994;2023-10-19T07:55:26;9.40;;;6.90;;
2021;SDS011;1015;49.756;6.994;2023-10-19T07:57:56;9.87;;;6.37;;
2021;SDS011;1015;49.756;6.994;2023-10-19T08:00:25;9.27;;;6.10;;
2021;SDS011;1015;49.756;6.994;2023-10-19T08:02:54;8.23;;;6.53;;
2021;SDS011;1015;49.756;6.994;2023-10-19T08:05:21;10.77;;;6.17;;
2021;SDS011;1015;49.756;6.994;2023-10-19T08:07:50;9.40;;;6.60;;
2021;SDS011;1015;49.756;6.994;2023-10-19T08:10:18;10.50;;;7.17;;
2021;SDS011;1015;49.756;6.994;2023-10-19T08:12:46;11.93;;;6.40;;
2021;SDS011;1015;49.756;6.994;2023-10-19T08:15:13;12.10;;;7.30;;
2021;SDS011;1015;49.756;6.994;2023-10-19T08:17:41;8.87;;;7.10;;
2021;SDS011;1015;49.756;6.994;2023-10-19T08:20:09;7.87;;;6.83;;
2021;SDS011;1015;49.756;6.994;2023-10-19T08:22:41;12.20;;;8.10;;
2021;SDS011;1015;49.756;6.994;2023-10-19T08:25:09;10.27;;;8.13;;
2021;SDS011;1015;49.756;6.994;2023-10-19T08:27:38;12.80;;;7.97;;
2021;SDS011;1015;49.756;6.994;2023-10-19T08:30:06;11.20;;;8.73;;
2021;SDS011;1015;49.756;6.994;2023-10-19T08:32:35;11.87;;;8.40;;
2021;SDS011;1015;49.756;6.994;2023-10-19T08:35:02;13.93;;;9.17;;
2021;SDS011;1015;49.756;6.994;2023-10-19T08:37:30;10.50;;;8.57;;
2021;SDS011;1015;49.756;6.994;2023-10-19T08:39:59;13.87;;;9.30;;
2021;SDS011;1015;49.756;6.994;2023-10-19T08:42:28;11.23;;;9.77;;
2021;SDS011;1015;49.756;6.994;2023-10-19T08:44:55;13.20;;;9.80;;
2021;SDS011;1015;49.756;6.994;2023-10-19T08:47:24;13.77;;;9.13;;
2021;SDS011;1015;49.756;6.994;2023-10-19T08:49:51;12.17;;;9.40;;
2021;SDS011;1015;49.756;6.994;2023-10-19T08:52:19;12.10;;;10.40;;
2021;SDS011;1015;49.756;6.994;2023-10-19T08:54:48;12.20;;;8.80;;
2021;SDS011;1015;49.756;6.994;2023-10-19T08:57:15;13.53;;;9.10;;
2021;SDS011;1015;49.756;6.994;2023-10-19T08:59:45;12.83;;;8.73;;
2021;SDS011;1015;49.756;6.994;2023-10-19T09:02:13;11.50;;;9.57;;
2021;SDS011;1015;49.756;6.994;2023-10-19T09:04:41;13.73;;;9.50;;
2021;SDS011;1015;49.756;6.994;2023-10-19T09:07:08;13.63;;;11.17;;
2021;SDS011;1015;49.756;6.994;2023-10-19T09:09:36;10.43;;;8.80;;
2021;SDS011;1015;49.756;6.994;2023-10-19T09:12:06;11.77;;;9.30;;
2021;SDS011;1015;49.756;6.994;2023-10-19T09:14:34;11.63;;;8.83;;
2021;SDS011;1015;49.756;6.994;2023-10-19T09:17:07;11.90;;;9.13;;
2021;SDS011;1015;49.756;6.994;2023-10-19T09:19:36;9.27;;;8.33;;
2021;SDS011;1015;49.756;6.994;2023-10-19T09:22:03;10.50;;;9.40;;
2021;SDS011;1015;49.756;6.994;2023-10-19T09:24:33;16.73;;;10.13;;
2021;SDS011;1015;49.756;6.994;2023-10-19T09:27:01;12.27;;;9.90;;
2021;SDS011;1015;49.756;6.994;2023-10-19T09:29:28;10.33;;;9.23;;
2021;SDS011;1015;49.756;6.994;2023-10-19T09:31:56;10.07;;;9.07;;
2021;SDS011;1015;49.756;6.994;2023-10-19T09:34:29;11.77;;;8.60;;
2021;SDS011;1015;49.756;6.994;2023-10-19T09:36:58;9.63;;;8.63;;
2021;SDS011;1015;49.756;6.994;2023-10-19T09:39:26;13.67;;;8.20;;
2021;SDS011;1015;49.756;6.994;2023-10-19T09:41:59;12.20;;;9.50;;
2021;SDS011;1015;49.756;6.994;2023-10-19T09:44:30;9.97;;;8.33;;
2021;SDS011;1015;49.756;6.994;2023-10-19T09:46:59;10.40;;;8.77;;
2021;SDS011;1015;49.756;6.994;2023-10-19T09:49:29;9.67;;;8.67;;
2021;SDS011;1015;49.756;6.994;2023-10-19T09:51:57;9.73;;;8.73;;
2021;SDS011;1015;49.756;6.994;2023-10-19T09:54:26;10.47;;;8.10;;
2021;SDS011;1015;49.756;6.994;2023-10-19T09:56:59;11.07;;;8.53;;
2021;SDS011;1015;49.756;6.994;2023-10-19T09:59:29;8.70;;;7.63;;
2021;SDS011;1015;49.756;6.994;2023-10-19T10:02:05;8.63;;;7.83;;
2021;SDS011;1015;49.756;6.994;2023-10-19T10:04:34;9.63;;;7.97;;
2021;SDS011;1015;49.756;6.994;2023-10-19T10:07:01;8.33;;;7.53;;
2021;SDS011;1015;49.756;6.994;2023-10-19T10:09:31;10.93;;;8.17;;
2021;SDS011;1015;49.756;6.994;2023-10-19T10:12:15;9.17;;;8.27;;
2021;SDS011;1015;49.756;6.994;2023-10-19T10:14:52;10.83;;;8.50;;
2021;SDS011;1015;49.756;6.994;2023-10-19T10:17:19;8.10;;;7.30;;
2021;SDS011;1015;49.756;6.994;2023-10-19T10:19:49;9.03;;;8.00;;
2021;SDS011;1015;49.756;6.994;2023-10-19T10:22:16;9.30;;;8.30;;
2021;SDS011;1015;49.756;6.994;2023-10-19T10:24:48;10.03;;;7.73;;
2021;SDS011;1015;49.756;6.994;2023-10-19T10:27:20;7.30;;;6.60;;
2021;SDS011;1015;49.756;6.994;2023-10-19T10:29:55;9.27;;;7.60;;
2021;SDS011;1015;49.756;6.994;2023-10-19T10:35:07;7.43;;;6.73;;
2021;SDS011;1015;49.756;6.994;2023-10-19T10:37:35;8.80;;;6.50;;
2021;SDS011;1015;49.756;6.994;2023-10-19T10:40:03;9.53;;;6.93;;
2021;SDS011;1015;49.756;6.994;2023-10-19T10:42:31;9.17;;;6.63;;
2021;SDS011;1015;49.756;6.994;2023-10-19T10:44:59;6.87;;;6.20;;
2021;SDS011;1015;49.756;6.994;2023-10-19T10:47:30;6.70;;;6.10;;
2021;SDS011;1015;49.756;6.994;2023-10-19T10:50:00;6.20;;;5.60;;
2021;SDS011;1015;49.756;6.994;2023-10-19T10:52:30;9.13;;;6.33;;
2021;SDS011;1015;49.756;6.994;2023-10-19T10:54:59;6.87;;;6.17;;
2021;SDS011;1015;49.756;6.994;2023-10-19T10:57:33;7.50;;;6.80;;
2021;SDS011;1015;49.756;6.994;2023-10-19T11:00:02;7.10;;;6.43;;
2021;SDS011;1015;49.756;6.994;2023-10-19T11:02:30;8.17;;;7.30;;
2021;SDS011;1015;49.756;6.994;2023-10-19T11:04:57;8.10;;;7.40;;
2021;SDS011;1015;49.756;6.994;2023-10-19T11:07:25;7.57;;;6.97;;
2021;SDS011;1015;49.756;6.994;2023-10-19T11:09:53;8.73;;;7.73;;
2021;SDS011;1015;49.756;6.994;2023-10-19T11:12:21;8.60;;;7.80;;
2021;SDS011;1015;49.756;6.994;2023-10-19T11:14:52;7.10;;;6.47;;
2021;SDS011;1015;49.756;6.994;2023-10-19T11:17:20;7.20;;;6.50;;
2021;SDS011;1015;49.756;6.994;2023-10-19T11:19:53;7.50;;;6.80;;
2021;SDS011;1015;49.756;6.994;2023-10-19T11:22:21;7.80;;;7.00;;
2021;SDS011;1015;49.756;6.994;2023-10-19T11:24:49;10.07;;;7.13;;
2021;SDS011;1015;49.756;6.994;2023-10-19T11:27:23;7.20;;;6.50;;
2021;SDS011;1015;49.756;6.994;2023-10-19T11:29:53;7.33;;;6.63;;
2021;SDS011;1015;49.756;6.994;2023-10-19T11:32:21;6.40;;;5.80;;
2021;SDS011;1015;49.756;6.994;2023-10-19T11:34:50;6.90;;;6.23;;
2021;SDS011;1015;49.756;6.994;2023-10-19T11:37:17;5.97;;;5.47;;
2021;SDS011;1015;49.756;6.994;2023-10-19T11:39:44;7.97;;;5.53;;
2021;SDS011;1015;49.756;6.994;2023-10-19T11:42:11;5.73;;;5.23;;
2021;SDS011;1015;49.756;6.994;2023-10-19T11:44:40;6.27;;;5.33;;
2021;SDS011;1015;49.756;6.994;2023-10-19T11:47:08;5.17;;;4.67;;
2021;SDS011;1015;49.756;6.994;2023-10-19T11:49:35;6.20;;;5.70;;
2021;SDS011;1015;49.756;6.994;2023-10-19T11:52:04;5.17;;;4.67;;
2021;SDS011;1015;49.756;6.994;2023-10-19T11:54:32;4.80;;;4.40;;
2021;SDS011;1015;49.756;6.994;2023-10-19T11:56:59;5.33;;;4.17;;
2021;SDS011;1015;49.756;6.994;2023-10-19T11:59:27;5.70;;;5.20;;
2021;SDS011;1015;49.756;6.994;2023-10-19T12:01:55;4.53;;;4.23;;
2021;SDS011;1015;49.756;6.994;2023-10-19T12:04:23;4.63;;;3.63;;
2021;SDS011;1015;49.756;6.994;2023-10-19T12:06:52;4.33;;;3.70;;
2021;SDS011;1015;49.756;6.994;2023-10-19T12:09:20;3.77;;;3.43;;
2021;SDS011;1015;49.756;6.994;2023-10-19T12:11:49;3.97;;;3.60;;
2021;SDS011;1015;49.756;6.994;2023-10-19T12:14:19;3.50;;;3.20;;
2021;SDS011;1015;49.756;6.994;2023-10-19T12:16:46;3.20;;;2.90;;
2021;SDS011;1015;49.756;6.994;2023-10-19T12:19:14;4.90;;;3.83;;
2021;SDS011;1015;49.756;6.994;2023-10-19T12:21:44;3.23;;;2.93;;
2021;SDS011;1015;49.756;6.994;2023-10-19T12:24:11;3.37;;;3.00;;
2021;SDS011;1015;49.756;6.994;2023-10-19T12:26:40;2.90;;;2.70;;
2021;SDS011;1015;49.756;6.994;2023-10-19T12:29:07;3.00;;;2.80;;
2021;SDS011;1015;49.756;6.994;2023-10-19T12:31:36;4.40;;;3.40;;
2021;SDS011;1015;49.756;6.994;2023-10-19T12:34:05;4.17;;;3.00;;
2021;SDS011;1015;49.756;6.994;2023-10-19T12:36:34;3.20;;;2.90;;
2021;SDS011;1015;49.756;6.994;2023-10-19T12:39:01;2.90;;;2.70;;
2021;SDS011;1015;49.756;6.994;2023-10-19T12:41:30;3.17;;;2.87;;
2021;SDS011;1015;49.756;6.994;2023-10-19T12:43:58;3.43;;;3.13;;
2021;SDS011;1015;49.756;6.994;2023-10-19T12:46:27;3.63;;;3.20;;
2021;SDS011;1015;49.756;6.994;2023-10-19T12:48:55;5.33;;;3.10;;
2021;SDS011;1015;49.756;6.994;2023-10-19T12:51:23;4.20;;;3.30;;
2021;SDS011;1015;49.756;6.994;2023-10-19T12:53:52;6.50;;;3.50;;
2021;SDS011;1015;49.756;6.994;2023-10-19T12:56:19;3.50;;;3.30;;
2021;SDS011;1015;49.756;6.994;2023-10-19T12:58:49;4.00;;;3.60;;
2021;SDS011;1015;49.756;6.994;2023-10-19T13:01:16;5.17;;;3.33;;
2021;SDS011;1015;49.756;6.994;2023-10-19T13:03:44;3.73;;;3.43;;
2021;SDS011;1015;49.756;6.994;2023-10-19T13:06:11;3.30;;;3.00;;
2021;SDS011;1015;49.756;6.994;2023-10-19T13:08:38;4.73;;;3.37;;
2021;SDS011;1015;49.756;6.994;2023-10-19T13:11:08;3.23;;;2.60;;
2021;SDS011;1015;49.756;6.994;2023-10-19T13:13:39;2.90;;;2.70;;
2021;SDS011;1015;49.756;6.994;2023-10-19T13:16:06;3.80;;;2.63;;
2021;SDS011;1015;49.756;6.994;2023-10-19T13:18:34;3.03;;;2.83;;
2021;SDS011;1015;49.756;6.994;2023-10-19T13:21:01;2.90;;;2.70;;
2021;SDS011;1015;49.756;6.994;2023-10-19T13:23:29;3.03;;;2.77;;
2021;SDS011;1015;49.756;6.994;2023-10-19T13:25:58;4.00;;;3.23;;
2021;SDS011;1015;49.756;6.994;2023-10-19T13:28:34;3.80;;;3.50;;
2021;SDS011;1015;49.756;6.994;2023-10-19T13:31:02;3.63;;;3.33;;
2021;SDS011;1015;49.756;6.994;2023-10-19T13:33:29;3.27;;;3.07;;
2021;SDS011;1015;49.756;6.994;2023-10-19T13:35:57;3.70;;;3.40;;
2021;SDS011;1015;49.756;6.994;2023-10-19T13:38:24;4.37;;;3.37;;
2021;SDS011;1015;49.756;6.994;2023-10-19T13:40:51;3.73;;;3.43;;
2021;SDS011;1015;49.756;6.994;2023-10-19T13:43:18;3.60;;;3.30;;
2021;SDS011;1015;49.756;6.994;2023-10-19T13:45:48;4.10;;;3.77;;
2021;SDS011;1015;49.756;6.994;2023-10-19T13:48:18;3.47;;;3.13;;
2021;SDS011;1015;49.756;6.994;2023-10-19T13:50:45;3.70;;;3.40;;
2021;SDS011;1015;49.756;6.994;2023-10-19T13:53:14;3.00;;;2.80;;
2021;SDS011;1015;49.756;6.994;2023-10-19T13:55:41;2.50;;;2.30;;
2021;SDS011;1015;49.756;6.994;2023-10-19T13:58:08;3.67;;;2.50;;
2021;SDS011;1015;49.756;6.994;2023-10-19T14:00:36;3.63;;;2.30;;
2021;SDS011;1015;49.756;6.994;2023-10-19T14:03:08;3.37;;;2.40;;
2021;SDS011;1015;49.756;6.994;2023-10-19T14:05:35;2.00;;;1.90;;
2021;SDS011;1015;49.756;6.994;2023-10-19T14:08:04;2.50;;;2.30;;
2021;SDS011;1015;49.756;6.994;2023-10-19T14:10:31;2.20;;;2.10;;
2021;SDS011;1015;49.756;6.994;2023-10-19T14:12:58;2.23;;;2.03;;
2021;SDS011;1015;49.756;6.994;2023-10-19T14:15:25;1.87;;;1.77;;
2021;SDS011;1015;49.756;6.994;2023-10-19T14:17:55;2.40;;;2.20;;
2021;SDS011;1015;49.756;6.994;2023-10-19T14:20:24;3.13;;;2.40;;
2021;SDS011;1015;49.756;6.994;2023-10-19T14:22:51;2.50;;;2.30;;
2021;SDS011;1015;49.756;6.994;2023-10-19T14:25:20;2.40;;;2.20;;
2021;SDS011;1015;49.756;6.994;2023-10-19T14:27:48;2.57;;;2.37;;
2021;SDS011;1015;49.756;6.994;2023-10-19T14:30:16;3.57;;;2.90;;
2021;SDS011;1015;49.756;6.994;2023-10-19T14:32:44;6.10;;;5.63;;
2021;SDS011;1015;49.756;6.994;2023-10-19T14:35:12;3.73;;;2.90;;
2021;SDS011;1015;49.756;6.994;2023-10-19T14:37:41;3.37;;;3.07;;
2021;SDS011;1015;49.756;6.994;2023-10-19T14:40:09;2.77;;;2.57;;
2021;SDS011;1015;49.756;6.994;2023-10-19T14:42:37;3.70;;;2.27;;
2021;SDS011;1015;49.756;6.994;2023-10-19T14:45:05;2.80;;;2.50;;
2021;SDS011;1015;49.756;6.994;2023-10-19T14:47:34;2.73;;;2.53;;
2021;SDS011;1015;49.756;6.994;2023-10-19T14:50:02;3.33;;;3.03;;
2021;SDS011;1015;49.756;6.994;2023-10-19T14:52:29;2.40;;;2.20;;
2021;SDS011;1015;49.756;6.994;2023-10-19T14:54:58;2.10;;;2.00;;
2021;SDS011;1015;49.756;6.994;2023-10-19T14:57:25;2.80;;;2.60;;
2021;SDS011;1015;49.756;6.994;2023-10-19T14:59:53;2.47;;;2.37;;
2021;SDS011;1015;49.756;6.994;2023-10-19T15:02:20;2.63;;;2.43;;
2021;SDS011;1015;49.756;6.994;2023-10-19T15:04:48;2.70;;;2.50;;
2021;SDS011;1015;49.756;6.994;2023-10-19T15:07:16;3.03;;;2.83;;
2021;SDS011;1015;49.756;6.994;2023-10-19T15:09:44;2.60;;;2.40;;
2021;SDS011;1015;49.756;6.994;2023-10-19T15:12:13;3.20;;;2.90;;
2021;SDS011;1015;49.756;6.994;2023-10-19T15:14:41;2.73;;;2.53;;
2021;SDS011;1015;49.756;6.994;2023-10-19T15:17:08;2.50;;;2.30;;
2021;SDS011;1015;49.756;6.994;2023-10-19T15:19:36;2.73;;;2.50;;
2021;SDS011;1015;49.756;6.994;2023-10-19T15:22:04;2.40;;;2.20;;
2021;SDS011;1015;49.756;6.994;2023-10-19T15:24:31;3.57;;;2.40;;